Time;durP1;ratioP1;P1;durP2;ratioP2;P2;SDS_P1;SDS_P2;PMS_P1;PMS_P2;Temp;Humidity;BMP_temperature;BMP_pressure;BME280_temperature;BME280_humidity;BME280_pressure;Samples;Min_cycle;Max_cycle;Signal;HPM_P1;HPM_P2
2023/10/17 00:00:25;;;;;;;24.95;13.40;;;;;;;9.87;100.00;102256.13;10537348;27;20059;-61
2023/10/17 00:05:38;;;;;;;24.30;13.95;;;;;;;9.90;100.00;102253.53;10534607;27;20507;-61
2023/10/17 00:11:21;;;;;;;18.30;12.80;;;;;;;9.95;100.00;102250.06;10535057;27;20047;-61
2023/10/17 00:16:43;;;;;;;20.02;12.05;;;;;;;9.99;100.00;102250.91;10537428;27;20425;-61
2023/10/17 00:22:05;;;;;;;23.05;12.70;;;;;;;9.96;100.00;102253.50;10548391;27;20040;-60
2023/10/17 00:27:26;;;;;;;17.85;11.98;;;;;;;9.95;100.00;102249.19;10534568;27;20463;-61
2023/10/17 00:32:50;;;;;;;18.60;11.75;;;;;;;9.91;100.00;102237.13;10538230;27;20090;-61
2023/10/17 00:38:15;;;;;;;17.38;11.27;;;;;;;9.96;100.00;102243.16;10534703;27;20047;-61
2023/10/17 00:43:37;;;;;;;19.25;11.60;;;;;;;9.95;100.00;102239.72;10532271;27;20503;-61
2023/10/17 00:48:59;;;;;;;18.60;11.27;;;;;;;9.92;100.00;102223.34;10538465;27;20392;-61
2023/10/17 00:54:24;;;;;;;15.48;11.18;;;;;;;9.86;100.00;102223.38;10531238;27;20050;-61
2023/10/17 00:59:53;;;;;;;14.63;10.27;;;;;;;9.89;100.00;102228.53;10543583;27;20040;-61
2023/10/17 01:05:16;;;;;;;13.88;8.90;;;;;;;9.86;100.00;102223.38;10540924;27;20044;-62
2023/10/17 01:10:40;;;;;;;15.75;9.50;;;;;;;9.89;100.00;102223.34;10540136;27;20054;-61
2023/10/17 01:16:06;;;;;;;16.77;9.60;;;;;;;9.87;100.00;102235.47;10524632;28;20186;-61
2023/10/17 01:21:27;;;;;;;15.95;9.15;;;;;;;9.89;100.00;102233.69;10539541;27;20178;-61
2023/10/17 01:26:49;;;;;;;14.50;10.07;;;;;;;9.95;100.00;102233.69;10526567;28;20506;-61
2023/10/17 01:32:11;;;;;;;13.35;9.57;;;;;;;9.97;100.00;102229.34;10537598;28;20470;-62
2023/10/17 01:37:32;;;;;;;17.00;10.20;;;;;;;9.99;100.00;102230.22;10523465;28;20043;-61
2023/10/17 01:42:58;;;;;;;16.55;9.75;;;;;;;9.99;100.00;102225.03;10533505;28;20091;-61
2023/10/17 01:48:21;;;;;;;19.92;10.30;;;;;;;9.99;100.00;102225.03;10528776;28;20059;-61
2023/10/17 01:53:48;;;;;;;17.02;10.00;;;;;;;9.95;100.00;102218.16;10529145;28;20527;-61
2023/10/17 01:59:17;;;;;;;16.23;9.68;;;;;;;9.99;100.00;102214.69;10532315;28;20051;-61
2023/10/17 02:04:38;;;;;;;18.17;9.90;;;;;;;9.98;100.00;102202.66;10542234;28;20052;-61
2023/10/17 02:10:00;;;;;;;15.18;8.50;;;;;;;10.00;100.00;102216.41;10531084;28;20469;-62
2023/10/17 02:15:26;;;;;;;13.85;7.25;;;;;;;9.99;100.00;102214.69;10531486;28;20044;-62
2023/10/17 02:20:51;;;;;;;16.73;7.55;;;;;;;10.03;100.00;102216.41;10526170;28;20142;-61
2023/10/17 02:26:14;;;;;;;13.65;8.02;;;;;;;10.03;100.00;102221.59;10527520;28;20059;-61
2023/10/17 02:31:36;;;;;;;15.35;8.73;;;;;;;10.07;100.00;102224.13;10529361;28;20050;-61
2023/10/17 02:37:00;;;;;;;11.15;6.80;;;;;;;10.01;100.00;102207.81;10522515;28;20055;-61
2023/10/17 02:42:22;;;;;;;11.77;6.32;;;;;;;10.00;100.00;102211.22;10529627;28;20050;-61
2023/10/17 02:47:44;;;;;;;12.25;7.35;;;;;;;10.00;100.00;102206.06;10530490;27;20132;-61
2023/10/17 02:53:05;;;;;;;16.17;7.00;;;;;;;9.97;100.00;102217.31;10540656;27;20071;-61
2023/10/17 02:58:28;;;;;;;13.15;6.80;;;;;;;9.97;100.00;102221.59;10517359;27;20048;-61
2023/10/17 03:03:50;;;;;;;10.38;6.70;;;;;;;9.97;100.00;102216.44;10538147;27;20048;-61
2023/10/17 03:09:57;;;;;;;13.93;6.50;;;;;;;9.99;100.00;102222.47;10523480;27;20215;-61
2023/10/17 03:20:36;;;;;;;13.68;6.03;;;;;;;10.00;100.00;102216.41;10536078;27;20100;-61
2023/10/17 03:26:01;;;;;;;14.18;6.63;;;;;;;10.00;100.00;102211.22;10554619;27;20139;-61
2023/10/17 03:31:26;;;;;;;10.97;6.17;;;;;;;9.99;100.00;102212.97;10536745;27;20048;-61
2023/10/17 03:36:51;;;;;;;10.30;6.80;;;;;;;10.00;100.00;102216.41;10550778;27;23312;-61
2023/10/17 03:42:28;;;;;;;13.30;6.93;;;;;;;10.01;100.00;102213.84;10541929;27;20415;-61
2023/10/17 03:47:59;;;;;;;11.55;6.88;;;;;;;10.01;100.00;102212.97;10542348;27;20102;-62
2023/10/17 03:53:29;;;;;;;12.45;7.20;;;;;;;10.02;100.00;102209.50;10540999;27;20031;-61
2023/10/17 03:58:57;;;;;;;14.57;6.68;;;;;;;10.01;100.00;102208.66;10537983;27;20076;-62
2023/10/17 04:04:30;;;;;;;15.65;6.57;;;;;;;10.02;100.00;102217.25;10540228;27;20157;-61
2023/10/17 04:09:54;;;;;;;9.77;6.22;;;;;;;9.98;100.00;102210.41;10533052;27;20055;-61
2023/10/17 04:15:18;;;;;;;13.60;7.03;;;;;;;10.03;100.00;102221.59;10526324;27;20036;-61
2023/10/17 04:20:43;;;;;;;10.52;6.55;;;;;;;10.03;100.00;102237.09;10533898;27;20044;-63
2023/10/17 04:26:07;;;;;;;11.03;6.27;;;;;;;10.03;100.00;102234.50;10545370;27;20040;-62
2023/10/17 04:31:29;;;;;;;13.35;6.00;;;;;;;10.03;100.00;102229.34;10534028;27;20396;-62
2023/10/17 04:36:55;;;;;;;12.73;5.63;;;;;;;10.00;100.00;102214.69;10536159;27;20043;-62
2023/10/17 04:42:26;;;;;;;9.93;5.47;;;;;;;10.06;100.00;102225.00;10541346;27;20254;-61
2023/10/17 04:47:54;;;;;;;11.77;5.80;;;;;;;10.01;100.00;102215.56;10526703;27;20046;-61
2023/10/17 04:53:35;;;;;;;11.55;6.68;;;;;;;10.02;100.00;102209.50;10532152;27;20055;-61
2023/10/17 04:58:57;;;;;;;11.68;6.55;;;;;;;10.01;100.00;102211.25;10535145;27;20048;-61
2023/10/17 05:04:19;;;;;;;12.85;5.45;;;;;;;9.95;100.00;102211.28;10535312;27;20050;-64
2023/10/17 06:17:56;;;;;;;9.25;5.70;;;;;;;9.53;100.00;102259.69;10547881;28;20040;-62
2023/10/17 06:23:24;;;;;;;13.25;5.45;;;;;;;9.56;100.00;102275.19;10555594;27;20887;-62
2023/10/17 06:28:46;;;;;;;9.15;5.90;;;;;;;9.56;100.00;102265.69;10548298;27;20192;-62
2023/10/17 06:34:08;;;;;;;12.50;6.38;;;;;;;9.63;100.00;102277.72;10544720;27;20035;-62
2023/10/17 06:39:45;;;;;;;12.95;7.20;;;;;;;9.67;100.00;102278.63;10555690;27;20048;-62
2023/10/17 06:45:08;;;;;;;14.73;8.45;;;;;;;9.70;100.00;102279.47;10551649;27;20044;-62
2023/10/17 06:56:12;;;;;;;13.15;6.95;;;;;;;9.77;100.00;102285.47;10553528;27;20043;-62
2023/10/17 07:01:38;;;;;;;13.27;6.95;;;;;;;9.84;100.00;102277.69;10544964;27;20040;-62
2023/10/17 07:07:03;;;;;;;21.67;7.60;;;;;;;9.88;100.00;102283.69;10553348;27;20135;-62
2023/10/17 07:12:25;;;;;;;13.13;6.75;;;;;;;9.93;100.00;102281.94;10552804;27;20043;-62
2023/10/17 07:18:39;;;;;;;11.23;5.90;;;;;;;9.97;100.00;102294.88;10550175;27;20101;-62
2023/10/17 07:23:32;;;;;;;12.75;5.97;;;;;;;10.08;100.00;102287.94;10547896;27;20054;-62
2023/10/17 07:28:54;;;;;;;15.60;5.85;;;;;;;10.17;100.00;102275.84;10551123;27;20058;-62
2023/10/17 07:39:37;;;;;;;10.25;4.80;;;;;;;10.29;97.85;102287.00;10553038;27;20052;-62
2023/10/17 07:45:04;;;;;;;9.05;4.05;;;;;;;10.36;96.88;102282.66;10536038;28;20040;-62
2023/10/17 07:50:26;;;;;;;6.50;3.67;;;;;;;10.43;95.40;102276.56;10545909;27;20048;-62
2023/10/17 07:55:51;;;;;;;13.20;3.65;;;;;;;10.49;94.38;102277.41;10534908;27;20119;-62
2023/10/17 08:01:16;;;;;;;10.25;3.20;;;;;;;10.48;91.22;102273.06;10545074;27;20565;-61
2023/10/17 08:06:40;;;;;;;6.43;2.10;;;;;;;10.54;88.09;102278.22;10542343;27;20031;-63
2023/10/17 08:12:05;;;;;;;5.53;1.83;;;;;;;10.60;87.24;102282.50;10535426;27;20051;-62
2023/10/17 08:17:34;;;;;;;2.30;1.50;;;;;;;10.66;89.41;102278.13;10548614;27;20135;-62
2023/10/17 08:23:06;;;;;;;6.05;1.65;;;;;;;10.71;86.41;102281.53;10568132;27;20555;-62
2023/10/17 08:44:50;;;;;;;2.50;1.00;;;;;;;10.84;84.03;102280.56;10550964;27;20066;-62
2023/10/17 08:50:15;;;;;;;5.00;1.15;;;;;;;10.87;85.19;102277.13;10555167;27;20389;-62
2023/10/17 08:55:40;;;;;;;3.13;0.90;;;;;;;10.92;81.97;102283.97;10544920;27;20408;-62
2023/10/17 09:01:10;;;;;;;4.82;1.10;;;;;;;10.95;83.14;102285.69;10539463;27;20128;-62
2023/10/17 09:06:37;;;;;;;5.40;1.33;;;;;;;10.99;85.31;102280.47;10522007;28;20058;-63
2023/10/17 09:17:59;;;;;;;3.33;0.80;;;;;;;11.15;81.01;102284.63;10551424;27;20047;-62
2023/10/17 09:23:28;;;;;;;3.90;0.70;;;;;;;11.26;83.72;102281.97;10553769;27;20551;-61
2023/10/17 09:29:00;;;;;;;2.20;0.80;;;;;;;11.26;83.25;102281.97;10534083;27;20046;-62
2023/10/17 09:34:26;;;;;;;2.80;0.60;;;;;;;11.33;83.48;102277.56;10556328;28;20138;-62
2023/10/17 09:39:49;;;;;;;3.90;0.80;;;;;;;11.36;84.09;102267.16;10552660;27;20043;-62
2023/10/17 09:45:13;;;;;;;1.58;0.70;;;;;;;11.32;84.22;102257.72;10545381;28;20036;-62
2023/10/17 09:50:56;;;;;;;4.22;0.82;;;;;;;11.26;82.23;102265.53;10554371;28;20093;-61
2023/10/17 09:56:21;;;;;;;2.03;0.60;;;;;;;11.18;81.19;102268.22;10559701;27;20417;-62
2023/10/17 10:01:46;;;;;;;7.55;1.38;;;;;;;11.32;78.64;102250.78;10551972;27;20062;-62
2023/10/17 10:07:22;;;;;;;2.17;0.93;;;;;;;11.33;81.29;102262.00;10557857;27;20129;-61
2023/10/17 10:13:01;;;;;;;5.32;0.90;;;;;;;11.32;80.80;102263.75;10555107;27;20506;-62
2023/10/17 10:18:35;;;;;;;3.33;0.88;;;;;;;11.32;80.21;102255.13;10556059;27;20130;-61
2023/10/17 10:23:57;;;;;;;2.20;0.85;;;;;;;11.34;81.95;102249.03;10554079;27;20120;-62
2023/10/17 10:29:22;;;;;;;2.08;0.90;;;;;;;11.34;80.80;102255.94;10542775;27;20497;-62
2023/10/17 10:34:45;;;;;;;2.05;1.00;;;;;;;11.39;79.15;102247.25;10546776;27;20039;-62
2023/10/17 10:40:14;;;;;;;3.13;1.10;;;;;;;11.41;80.20;102242.06;10552254;27;20475;-62
2023/10/17 10:45:50;;;;;;;3.47;1.13;;;;;;;11.40;81.19;102228.25;10555116;27;20059;-62
2023/10/17 10:51:16;;;;;;;5.35;0.75;;;;;;;11.41;80.99;102229.13;10547965;27;20675;-62
2023/10/17 10:56:37;;;;;;;3.27;0.97;;;;;;;11.42;79.05;102226.50;10548876;27;20105;-62
2023/10/17 11:01:59;;;;;;;2.33;0.90;;;;;;;11.46;80.56;102233.38;10546655;27;20050;-64
2023/10/17 11:07:22;;;;;;;2.00;0.82;;;;;;;11.48;80.45;102225.56;10556555;27;20047;-62
2023/10/17 11:12:53;;;;;;;2.50;0.80;;;;;;;11.45;78.23;102212.63;10554352;27;20495;-62
2023/10/17 11:18:19;;;;;;;4.35;0.98;;;;;;;11.58;77.01;102211.63;10544935;27;20044;-62
2023/10/17 11:23:47;;;;;;;2.25;0.82;;;;;;;11.69;78.01;102199.41;10538424;27;20036;-62
2023/10/17 11:29:09;;;;;;;2.78;1.20;;;;;;;11.72;78.73;102209.78;10543849;27;20051;-62
2023/10/17 11:34:32;;;;;;;2.50;1.00;;;;;;;11.76;77.73;102208.81;10542054;27;20036;-62
2023/10/17 11:40:04;;;;;;;1.85;0.60;;;;;;;11.79;77.95;102193.25;10555423;27;20385;-62
2023/10/17 11:45:33;;;;;;;6.53;1.00;;;;;;;11.83;78.77;102177.63;10548095;27;20042;-62
2023/10/17 11:51:13;;;;;;;3.33;0.82;;;;;;;12.07;76.82;102182.47;10545198;27;20499;-62
2023/10/17 11:56:37;;;;;;;2.83;1.05;;;;;;;12.18;71.44;102189.25;10549354;27;20058;-62
2023/10/17 12:02:03;;;;;;;2.05;0.85;;;;;;;12.37;71.15;102183.75;10559303;27;20048;-62
2023/10/17 12:07:24;;;;;;;5.78;1.00;;;;;;;12.52;73.60;102174.84;10555353;27;20047;-62
2023/10/17 12:12:47;;;;;;;2.95;0.60;;;;;;;12.51;75.27;102174.00;10542061;27;20136;-62
2023/10/17 12:18:09;;;;;;;4.68;0.70;;;;;;;12.56;76.25;102150.56;10546879;27;20048;-62
2023/10/17 12:23:31;;;;;;;2.42;0.60;;;;;;;12.52;72.86;102149.75;10543242;27;20089;-62
2023/10/17 12:28:54;;;;;;;1.88;0.88;;;;;;;12.49;75.50;102148.97;10553524;27;20067;-62
2023/10/17 12:34:19;;;;;;;;;;;;;;;12.41;72.16;102140.44;10555258;27;20575;-62
2023/10/17 12:39:42;;;;;;;1.88;0.65;;;;;;;12.45;76.10;102134.31;10549106;27;19926;-62
2023/10/17 12:45:05;;;;;;;3.78;0.90;;;;;;;12.47;76.14;102123.00;10544265;27;20124;-62
2023/10/17 12:50:27;;;;;;;5.53;0.85;;;;;;;12.44;75.52;102119.59;10546051;27;20054;-62
2023/10/17 12:55:49;;;;;;;5.63;1.00;;;;;;;12.38;76.90;102130.09;10536614;27;20401;-62
2023/10/17 13:01:13;;;;;;;2.50;0.90;;;;;;;12.32;74.99;102123.28;10555815;27;20043;-62
2023/10/17 13:06:35;;;;;;;3.83;1.10;;;;;;;12.36;75.95;102124.06;10545738;27;20124;-62
2023/10/17 13:11:56;;;;;;;3.17;1.52;;;;;;;12.38;77.32;102120.56;10550158;27;20044;-62
2023/10/17 13:17:18;;;;;;;3.80;0.93;;;;;;;12.40;75.15;102113.59;10550721;27;20131;-62
2023/10/17 13:22:47;;;;;;;1.15;0.63;;;;;;;12.46;77.49;102105.72;10544159;27;20089;-62
2023/10/17 13:28:12;;;;;;;2.80;0.70;;;;;;;12.44;76.53;102104.88;10539981;28;20076;-62
2023/10/17 13:33:34;;;;;;;2.75;0.70;;;;;;;12.46;74.44;102100.53;10549029;27;20135;-62
2023/10/17 13:38:55;;;;;;;5.18;0.80;;;;;;;12.47;75.94;102101.38;10545862;28;20051;-62
2023/10/17 13:44:19;;;;;;;1.30;0.70;;;;;;;12.51;75.18;102098.69;10546100;27;20118;-62
2023/10/17 13:49:40;;;;;;;3.92;0.70;;;;;;;12.49;74.17;102095.25;10549063;28;20036;-62
2023/10/17 13:55:08;;;;;;;3.47;0.85;;;;;;;12.45;75.82;102085.84;10534655;28;20044;-62
2023/10/17 14:06:14;;;;;;;3.40;0.63;;;;;;;12.42;75.21;102080.69;10543173;28;20119;-62
2023/10/17 14:11:36;;;;;;;1.38;0.68;;;;;;;12.35;74.96;102073.88;10553020;28;20059;-62
2023/10/17 14:16:58;;;;;;;2.33;0.88;;;;;;;12.31;74.24;102064.44;10565503;28;20514;-62
2023/10/17 14:22:38;;;;;;;1.30;0.70;;;;;;;12.27;75.00;102060.19;10550693;28;20104;-61
2023/10/17 14:28:01;;;;;;;4.15;1.30;;;;;;;12.34;75.45;102054.03;10540269;28;20047;-62
2023/10/17 14:33:23;;;;;;;4.43;0.80;;;;;;;12.37;75.46;102051.38;10554087;28;20035;-62
2023/10/17 14:38:45;;;;;;;2.00;0.70;;;;;;;12.29;76.49;102042.00;10533221;28;20521;-62
2023/10/17 14:44:06;;;;;;;2.97;0.80;;;;;;;12.26;75.54;102032.53;10558905;27;20040;-62
2023/10/17 14:49:28;;;;;;;2.40;0.65;;;;;;;12.33;75.39;102026.34;10548827;27;20047;-62
2023/10/17 14:54:50;;;;;;;2.92;1.10;;;;;;;12.26;76.62;102022.16;10563729;27;20395;-62
2023/10/17 15:00:14;;;;;;;1.45;0.60;;;;;;;12.23;76.35;102022.22;10548835;27;20491;-62
2023/10/17 15:05:39;;;;;;;2.22;0.80;;;;;;;12.24;76.07;102017.84;10547204;27;20043;-62
2023/10/17 15:11:10;;;;;;;1.93;0.90;;;;;;;12.17;75.95;102019.72;10554963;27;20139;-62
2023/10/17 15:16:32;;;;;;;3.10;1.20;;;;;;;12.10;76.75;102012.91;10554648;27;20043;-62
2023/10/17 15:21:53;;;;;;;2.65;1.00;;;;;;;12.08;77.43;102014.69;10534071;27;20711;-61
2023/10/17 15:27:15;;;;;;;2.28;0.90;;;;;;;12.07;76.36;102016.41;10554515;27;20039;-62
2023/10/17 15:32:37;;;;;;;2.20;0.82;;;;;;;12.06;76.29;102003.47;10565950;27;20134;-62
2023/10/17 15:37:59;;;;;;;2.25;1.00;;;;;;;11.99;78.07;102012.25;10545724;27;20466;-62
2023/10/17 15:43:20;;;;;;;2.15;0.95;;;;;;;11.95;78.09;101989.81;10555069;27;20051;-62
2023/10/17 15:48:43;;;;;;;1.85;0.90;;;;;;;11.93;79.92;101999.38;10547004;27;20044;-62
2023/10/17 15:54:05;;;;;;;3.05;0.80;;;;;;;11.90;78.46;102004.63;10545041;27;20097;-62
2023/10/17 15:59:27;;;;;;;3.53;1.00;;;;;;;11.79;80.51;102003.94;10565096;27;20062;-62
2023/10/17 16:04:49;;;;;;;1.55;0.90;;;;;;;11.71;80.11;101993.69;10558587;27;20092;-62
2023/10/17 16:10:16;;;;;;;2.15;1.00;;;;;;;11.66;78.55;102007.59;10547964;27;20044;-62
2023/10/17 16:15:38;;;;;;;3.28;1.10;;;;;;;11.62;80.30;102016.25;10553042;27;20428;-62
2023/10/17 16:21:00;;;;;;;5.07;1.33;;;;;;;11.53;80.69;102013.81;10549201;27;20087;-62
2023/10/17 16:26:23;;;;;;;3.38;0.88;;;;;;;11.40;81.31;102017.47;10549386;27;20035;-62
2023/10/17 16:31:44;;;;;;;4.20;1.05;;;;;;;11.35;81.96;102014.09;10541952;27;20471;-62
2023/10/17 16:37:07;;;;;;;4.20;1.15;;;;;;;11.22;82.75;102020.31;10544063;27;20139;-62
2023/10/17 16:42:29;;;;;;;3.28;1.13;;;;;;;11.13;83.48;102016.13;10549750;27;20043;-62
2023/10/17 16:47:51;;;;;;;3.15;1.10;;;;;;;11.04;83.36;102024.84;10535734;27;20069;-62
2023/10/17 16:53:15;;;;;;;4.22;1.30;;;;;;;10.96;84.19;102029.28;10540911;27;20521;-62
2023/10/17 16:58:38;;;;;;;4.97;1.88;;;;;;;10.88;84.51;102028.50;10547537;27;20127;-62
2023/10/17 17:04:04;;;;;;;3.25;1.58;;;;;;;10.81;84.67;102023.41;10552568;27;20042;-62
2023/10/17 17:09:27;;;;;;;4.07;1.40;;;;;;;10.76;86.10;102031.25;10541674;27;20051;-62
2023/10/17 17:14:49;;;;;;;5.00;1.60;;;;;;;10.72;84.78;102029.56;10541902;27;20136;-62
2023/10/17 17:20:13;;;;;;;3.78;1.60;;;;;;;10.66;84.56;102034.78;10535161;27;20644;-62
2023/10/17 17:25:40;;;;;;;4.43;1.73;;;;;;;10.61;84.48;102034.00;10550371;27;20648;-62
2023/10/17 17:31:06;;;;;;;4.85;2.00;;;;;;;10.56;85.09;102033.19;10537670;27;20052;-62
2023/10/17 17:36:28;;;;;;;5.20;2.65;;;;;;;10.56;84.09;102037.50;10535447;27;20422;-62
2023/10/17 17:41:50;;;;;;;10.35;3.08;;;;;;;10.49;84.62;102044.50;10547178;27;20040;-62
2023/10/17 17:47:12;;;;;;;7.07;3.55;;;;;;;10.43;85.55;102054.91;10544082;28;20626;-62
2023/10/17 17:52:34;;;;;;;9.43;4.05;;;;;;;10.36;84.63;102045.47;10537886;28;20047;-61
2023/10/17 17:57:57;;;;;;;8.38;4.15;;;;;;;10.30;85.04;102040.34;10544918;28;20689;-62
2023/10/17 18:03:19;;;;;;;13.05;3.88;;;;;;;10.24;85.07;102045.56;10525235;28;20056;-62
2023/10/17 18:08:41;;;;;;;13.70;4.78;;;;;;;10.20;86.15;102049.06;10541928;28;20052;-62
2023/10/17 18:14:02;;;;;;;9.75;4.47;;;;;;;10.07;86.32;102032.75;10533317;28;20070;-63
2023/10/17 18:19:25;;;;;;;9.38;4.70;;;;;;;10.01;86.68;102019.03;10550629;27;20044;-62
2023/10/17 18:24:47;;;;;;;12.13;4.45;;;;;;;9.96;86.41;102021.66;10557092;27;20056;-62
2023/10/17 18:30:09;;;;;;;12.88;4.47;;;;;;;9.93;86.26;102018.22;10545154;27;20055;-62
2023/10/17 18:35:31;;;;;;;7.60;4.05;;;;;;;9.88;87.12;102014.84;10548716;27;20032;-62
2023/10/17 18:40:56;;;;;;;10.48;4.00;;;;;;;9.79;86.76;102009.75;10557115;27;20050;-62
2023/10/17 18:46:19;;;;;;;7.80;3.45;;;;;;;9.70;86.79;102000.34;10556986;27;20415;-61
2023/10/17 18:51:41;;;;;;;4.97;3.00;;;;;;;9.63;87.32;102000.38;10551305;27;20054;-62
2023/10/17 18:57:03;;;;;;;7.25;3.53;;;;;;;9.59;88.41;102012.47;10558685;27;20138;-62
2023/10/17 19:02:24;;;;;;;9.55;3.55;;;;;;;9.56;87.97;102011.66;10556284;27;20054;-62
2023/10/17 19:07:47;;;;;;;7.07;3.50;;;;;;;9.48;88.19;102003.94;10569793;27;20040;-62
2023/10/17 19:13:09;;;;;;;10.38;3.58;;;;;;;9.42;88.71;101992.78;10553105;27;20047;-62
2023/10/17 19:18:33;;;;;;;7.18;3.47;;;;;;;9.39;88.81;101988.50;10546750;27;20147;-62
2023/10/17 19:23:55;;;;;;;7.60;3.80;;;;;;;9.37;88.07;101991.94;10557392;27;20043;-62
2023/10/17 19:29:16;;;;;;;8.45;3.25;;;;;;;9.38;89.40;101985.91;10552989;27;20060;-62
2023/10/17 19:34:44;;;;;;;6.70;3.55;;;;;;;9.30;88.65;101991.16;10551726;27;20047;-62
2023/10/17 19:40:07;;;;;;;6.78;3.40;;;;;;;9.27;88.95;101992.84;10559148;27;20466;-62
2023/10/17 19:45:30;;;;;;;13.27;4.32;;;;;;;9.24;89.16;101995.47;10551467;27;20044;-62
2023/10/17 19:50:51;;;;;;;14.50;4.95;;;;;;;9.20;89.15;101991.19;10550906;27;20523;-62
2023/10/17 19:56:13;;;;;;;12.82;5.25;;;;;;;9.10;89.11;101995.56;10557185;27;20059;-63
2023/10/17 20:01:36;;;;;;;17.73;6.15;;;;;;;9.03;90.00;101986.09;10549107;27;20481;-62
2023/10/17 20:06:58;;;;;;;13.55;6.93;;;;;;;8.98;89.40;101970.66;10559437;27;20035;-62
2023/10/17 20:12:20;;;;;;;13.32;6.90;;;;;;;8.89;89.47;101962.97;10551392;27;20051;-62
2023/10/17 20:17:41;;;;;;;14.90;7.78;;;;;;;8.83;89.90;101950.09;10547655;27;20043;-62
2023/10/17 20:23:03;;;;;;;12.45;6.60;;;;;;;8.77;90.04;101946.69;10526479;27;20056;-61
2023/10/17 20:28:25;;;;;;;11.25;5.80;;;;;;;8.74;90.31;101946.69;10527799;27;20137;-62
2023/10/17 20:33:47;;;;;;;10.05;5.50;;;;;;;8.66;90.13;101946.72;10547464;27;20067;-62
2023/10/17 20:39:08;;;;;;;9.18;4.68;;;;;;;8.60;90.21;101936.44;10538266;27;20048;-62
2023/10/17 20:44:30;;;;;;;8.18;3.65;;;;;;;8.56;89.85;101942.47;10529049;27;20036;-62
2023/10/17 20:49:52;;;;;;;6.65;3.65;;;;;;;8.51;89.93;101939.06;10551746;27;20514;-62
2023/10/17 20:55:14;;;;;;;9.48;4.25;;;;;;;8.48;90.26;101936.47;10552563;27;20044;-61
2023/10/17 21:00:35;;;;;;;6.78;3.60;;;;;;;8.46;90.77;101939.94;10534219;27;20242;-61
2023/10/17 21:05:58;;;;;;;6.07;3.83;;;;;;;8.38;90.61;101950.28;10545783;27;20120;-62
2023/10/17 21:11:20;;;;;;;7.82;3.95;;;;;;;8.34;90.86;101938.25;10531710;27;20054;-62
2023/10/17 21:16:41;;;;;;;6.70;4.38;;;;;;;8.30;90.78;101941.69;10534630;27;20050;-61
2023/10/17 21:22:03;;;;;;;9.23;4.53;;;;;;;8.27;90.63;101936.56;10533860;27;20067;-62
2023/10/17 21:27:26;;;;;;;7.38;3.78;;;;;;;8.21;90.94;101933.94;10528051;27;20044;-62
2023/10/17 21:32:48;;;;;;;9.40;4.22;;;;;;;8.19;91.05;101927.94;10538792;27;20047;-63
2023/10/17 21:38:09;;;;;;;8.23;3.95;;;;;;;8.09;90.65;101921.09;10543950;28;20050;-62
2023/10/17 21:43:32;;;;;;;11.40;4.50;;;;;;;8.09;91.20;101924.50;10532155;27;20050;-61
2023/10/17 21:48:54;;;;;;;11.70;4.60;;;;;;;8.06;91.26;101926.25;10545539;27;20050;-62
2023/10/17 21:54:16;;;;;;;10.80;4.50;;;;;;;7.99;91.36;101919.38;10538086;28;20043;-61
2023/10/17 21:59:37;;;;;;;11.40;4.50;;;;;;;7.99;92.36;101914.22;10537361;28;20439;-62
2023/10/17 22:04:59;;;;;;;16.02;4.50;;;;;;;7.95;91.66;101920.25;10549699;28;20043;-62
2023/10/17 22:10:20;;;;;;;9.40;4.40;;;;;;;7.90;91.90;101914.25;10542920;28;20039;-62
2023/10/17 22:15:42;;;;;;;8.13;4.90;;;;;;;7.86;92.05;101907.38;10537968;28;20043;-62
2023/10/17 22:21:05;;;;;;;9.38;5.07;;;;;;;7.86;92.63;101912.53;10557101;28;20044;-61
2023/10/17 22:26:27;;;;;;;9.10;4.72;;;;;;;7.82;92.28;101900.53;10542761;28;20031;-61
2023/10/17 22:31:49;;;;;;;8.40;4.68;;;;;;;7.78;92.07;101894.50;10537997;28;20046;-61
2023/10/17 22:37:10;;;;;;;10.57;5.53;;;;;;;7.72;92.48;101886.81;10545294;28;20134;-62
2023/10/17 22:42:32;;;;;;;10.88;5.32;;;;;;;7.70;93.21;101867.06;10541921;28;20142;-64
2023/10/17 22:47:56;;;;;;;9.82;5.15;;;;;;;7.76;93.26;101862.78;10548382;28;20111;-61
2023/10/17 22:53:18;;;;;;;8.40;5.00;;;;;;;7.77;93.00;101855.88;10539655;28;20048;-62
2023/10/17 22:58:41;;;;;;;8.75;5.10;;;;;;;7.76;93.47;101849.88;10549343;28;20042;-61
2023/10/17 23:04:02;;;;;;;11.73;5.30;;;;;;;7.67;92.90;101839.56;10546697;27;20040;-62
2023/10/17 23:09:26;;;;;;;8.18;5.05;;;;;;;7.64;92.85;101849.88;10548210;27;20056;-62
2023/10/17 23:14:48;;;;;;;8.75;5.00;;;;;;;7.54;93.22;101839.63;10549460;27;20079;-62
2023/10/17 23:20:14;;;;;;;8.70;5.20;;;;;;;7.52;93.02;101828.44;10557549;27;20051;-61
2023/10/17 23:25:36;;;;;;;11.68;5.53;;;;;;;7.53;94.08;101835.31;10556484;27;20052;-62
2023/10/17 23:30:59;;;;;;;11.80;5.55;;;;;;;7.53;94.19;101835.31;10545288;27;20511;-62
2023/10/17 23:36:22;;;;;;;8.48;5.15;;;;;;;7.50;93.90;101845.63;10542388;27;20461;-62
2023/10/17 23:41:45;;;;;;;10.27;5.68;;;;;;;7.51;94.21;101857.66;10544710;27;20050;-62
2023/10/17 23:47:11;;;;;;;11.13;5.97;;;;;;;7.48;94.43;101853.34;10534922;27;20070;-62
2023/10/17 23:52:34;;;;;;;13.07;5.90;;;;;;;7.40;93.84;101834.47;10551188;27;20070;-61
2023/10/17 23:57:56;;;;;;;10.20;6.40;;;;;;;7.43;94.90;101843.91;10554388;27;20043;-61
